sensor_id;sensor_type;location;lat;lon;timestamp;pressure;altitude;pressure_sealevel;temperature;humidity
75172;BME280;63750;52.418;20.742;2022-11-12T00:01:19;102065.55;;;12.56;70.52
75172;BME280;63750;52.418;20.742;2022-11-12T00:03:47;102068.92;;;12.57;70.62
75172;BME280;63750;52.418;20.742;2022-11-12T00:06:16;102068.27;;;12.56;70.49
75172;BME280;63750;52.418;20.742;2022-11-12T00:08:44;102072.19;;;12.56;70.62
75172;BME280;63750;52.418;20.742;2022-11-12T00:11:12;102067.34;;;12.56;70.63
75172;BME280;63750;52.418;20.742;2022-11-12T00:13:41;102066.73;;;12.58;70.74
75172;BME280;63750;52.418;20.742;2022-11-12T00:16:09;102068.16;;;12.57;70.71
75172;BME280;63750;52.418;20.742;2022-11-12T00:18:37;102072.45;;;12.55;70.66
75172;BME280;63750;52.418;20.742;2022-11-12T00:21:06;102076.66;;;12.53;70.83
75172;BME280;63750;52.418;20.742;2022-11-12T00:23:35;102073.48;;;12.55;70.75
75172;BME280;63750;52.418;20.742;2022-11-12T00:26:04;102078.08;;;12.55;70.62
75172;BME280;63750;52.418;20.742;2022-11-12T00:28:32;102075.34;;;12.56;70.65
75172;BME280;63750;52.418;20.742;2022-11-12T00:31:07;102073.50;;;12.57;70.68
75172;BME280;63750;52.418;20.742;2022-11-12T00:33:39;102073.30;;;12.57;70.93
75172;BME280;63750;52.418;20.742;2022-11-12T00:36:08;102073.20;;;12.61;71.11
75172;BME280;63750;52.418;20.742;2022-11-12T00:38:37;102075.48;;;12.64;70.97
75172;BME280;63750;52.418;20.742;2022-11-12T00:41:06;102078.27;;;12.65;71.04
75172;BME280;63750;52.418;20.742;2022-11-12T00:43:34;102077.91;;;12.67;70.90
75172;BME280;63750;52.418;20.742;2022-11-12T00:46:03;102074.56;;;12.70;70.82
75172;BME280;63750;52.418;20.742;2022-11-12T00:48:32;102071.27;;;12.71;70.85
75172;BME280;63750;52.418;20.742;2022-11-12T00:51:02;102072.80;;;12.72;70.78
75172;BME280;63750;52.418;20.742;2022-11-12T00:53:31;102073.09;;;12.73;70.69
75172;BME280;63750;52.418;20.742;2022-11-12T00:56:04;102072.19;;;12.73;70.65
75172;BME280;63750;52.418;20.742;2022-11-12T00:58:35;102072.89;;;12.71;70.68
75172;BME280;63750;52.418;20.742;2022-11-12T01:01:10;102069.08;;;12.69;70.59
75172;BME280;63750;52.418;20.742;2022-11-12T01:03:41;102066.42;;;12.69;70.69
75172;BME280;63750;52.418;20.742;2022-11-12T01:06:12;102064.39;;;12.70;70.62
75172;BME280;63750;52.418;20.742;2022-11-12T01:08:42;102059.13;;;12.72;70.70
75172;BME280;63750;52.418;20.742;2022-11-12T01:11:12;102059.06;;;12.73;70.55
75172;BME280;63750;52.418;20.742;2022-11-12T01:13:43;102051.40;;;12.76;70.70
75172;BME280;63750;52.418;20.742;2022-11-12T01:16:13;102054.00;;;12.76;70.56
75172;BME280;63750;52.418;20.742;2022-11-12T01:18:42;102051.84;;;12.79;70.64
75172;BME280;63750;52.418;20.742;2022-11-12T01:21:12;102051.90;;;12.80;70.68
75172;BME280;63750;52.418;20.742;2022-11-12T01:23:41;102055.73;;;12.82;70.51
75172;BME280;63750;52.418;20.742;2022-11-12T01:26:12;102059.40;;;12.80;70.40
75172;BME280;63750;52.418;20.742;2022-11-12T01:28:41;102057.80;;;12.78;70.38
75172;BME280;63750;52.418;20.742;2022-11-12T01:31:19;102056.31;;;12.74;70.49
75172;BME280;63750;52.418;20.742;2022-11-12T01:33:49;102060.80;;;12.73;70.71
75172;BME280;63750;52.418;20.742;2022-11-12T01:36:18;102057.91;;;12.79;71.35
75172;BME280;63750;52.418;20.742;2022-11-12T01:38:48;102060.81;;;12.88;71.02
75172;BME280;63750;52.418;20.742;2022-11-12T01:41:19;102063.30;;;12.95;70.69
75172;BME280;63750;52.418;20.742;2022-11-12T01:46:30;102062.30;;;12.99;70.02
75172;BME280;63750;52.418;20.742;2022-11-12T01:49:03;102061.32;;;12.98;69.80
75172;BME280;63750;52.418;20.742;2022-11-12T01:51:35;102065.06;;;12.98;69.88
75172;BME280;63750;52.418;20.742;2022-11-12T01:54:10;102064.93;;;12.94;69.88
75172;BME280;63750;52.418;20.742;2022-11-12T01:56:40;102068.16;;;12.94;69.97
75172;BME280;63750;52.418;20.742;2022-11-12T01:59:13;102067.42;;;12.92;69.92
75172;BME280;63750;52.418;20.742;2022-11-12T02:01:44;102069.70;;;12.88;69.85
75172;BME280;63750;52.418;20.742;2022-11-12T02:04:13;102063.92;;;12.84;69.88
75172;BME280;63750;52.418;20.742;2022-11-12T02:06:43;102059.34;;;12.81;69.83
75172;BME280;63750;52.418;20.742;2022-11-12T02:09:13;102062.32;;;12.79;70.08
75172;BME280;63750;52.418;20.742;2022-11-12T02:11:41;102058.43;;;12.81;70.57
75172;BME280;63750;52.418;20.742;2022-11-12T02:14:10;102058.81;;;12.88;70.42
75172;BME280;63750;52.418;20.742;2022-11-12T02:16:40;102061.08;;;12.91;70.20
75172;BME280;63750;52.418;20.742;2022-11-12T02:19:13;102056.70;;;12.93;70.40
75172;BME280;63750;52.418;20.742;2022-11-12T02:21:42;102058.48;;;12.95;69.88
75172;BME280;63750;52.418;20.742;2022-11-12T02:24:34;102059.14;;;12.93;69.72
75172;BME280;63750;52.418;20.742;2022-11-12T02:27:03;102059.65;;;12.89;69.72
75172;BME280;63750;52.418;20.742;2022-11-12T02:29:33;102058.98;;;12.86;69.65
75172;BME280;63750;52.418;20.742;2022-11-12T02:32:01;102058.25;;;12.84;69.87
75172;BME280;63750;52.418;20.742;2022-11-12T02:34:30;102065.73;;;12.81;69.96
75172;BME280;63750;52.418;20.742;2022-11-12T02:36:58;102070.13;;;12.77;69.97
75172;BME280;63750;52.418;20.742;2022-11-12T02:39:26;102067.23;;;12.73;70.10
75172;BME280;63750;52.418;20.742;2022-11-12T02:41:55;102067.41;;;12.70;70.25
75172;BME280;63750;52.418;20.742;2022-11-12T02:44:25;102073.38;;;12.66;70.21
75172;BME280;63750;52.418;20.742;2022-11-12T02:46:54;102074.45;;;12.64;70.28
75172;BME280;63750;52.418;20.742;2022-11-12T02:49:22;102073.27;;;12.63;70.49
75172;BME280;63750;52.418;20.742;2022-11-12T02:51:50;102073.04;;;12.61;70.61
75172;BME280;63750;52.418;20.742;2022-11-12T02:54:19;102074.55;;;12.60;70.48
75172;BME280;63750;52.418;20.742;2022-11-12T02:56:48;102073.39;;;12.59;70.42
75172;BME280;63750;52.418;20.742;2022-11-12T02:59:16;102077.23;;;12.55;70.43
75172;BME280;63750;52.418;20.742;2022-11-12T03:01:45;102074.48;;;12.54;70.45
75172;BME280;63750;52.418;20.742;2022-11-12T03:04:13;102075.21;;;12.53;70.46
75172;BME280;63750;52.418;20.742;2022-11-12T03:06:42;102077.75;;;12.52;70.53
75172;BME280;63750;52.418;20.742;2022-11-12T03:09:13;102079.78;;;12.54;70.83
75172;BME280;63750;52.418;20.742;2022-11-12T03:11:41;102086.13;;;12.62;71.30
75172;BME280;63750;52.418;20.742;2022-11-12T03:14:11;102088.00;;;12.71;71.01
75172;BME280;63750;52.418;20.742;2022-11-12T03:16:39;102082.84;;;12.74;70.39
75172;BME280;63750;52.418;20.742;2022-11-12T03:19:08;102087.14;;;12.73;70.09
75172;BME280;63750;52.418;20.742;2022-11-12T03:21:37;102087.88;;;12.70;69.92
75172;BME280;63750;52.418;20.742;2022-11-12T03:24:06;102089.13;;;12.64;69.83
75172;BME280;63750;52.418;20.742;2022-11-12T03:26:34;102090.09;;;12.61;69.77
75172;BME280;63750;52.418;20.742;2022-11-12T03:29:03;102093.64;;;12.59;69.76
75172;BME280;63750;52.418;20.742;2022-11-12T03:31:31;102093.31;;;12.56;69.91
75172;BME280;63750;52.418;20.742;2022-11-12T03:34:00;102092.30;;;12.53;69.79
75172;BME280;63750;52.418;20.742;2022-11-12T03:36:28;102091.91;;;12.46;69.65
75172;BME280;63750;52.418;20.742;2022-11-12T03:38:57;102090.80;;;12.44;69.78
75172;BME280;63750;52.418;20.742;2022-11-12T03:41:25;102095.20;;;12.42;69.89
75172;BME280;63750;52.418;20.742;2022-11-12T03:43:54;102095.88;;;12.40;69.89
75172;BME280;63750;52.418;20.742;2022-11-12T03:46:22;102098.15;;;12.38;69.88
75172;BME280;63750;52.418;20.742;2022-11-12T03:48:50;102092.80;;;12.38;69.96
75172;BME280;63750;52.418;20.742;2022-11-12T03:51:19;102090.18;;;12.40;69.80
75172;BME280;63750;52.418;20.742;2022-11-12T03:53:47;102090.66;;;12.38;69.81
75172;BME280;63750;52.418;20.742;2022-11-12T03:56:16;102092.73;;;12.36;69.73
75172;BME280;63750;52.418;20.742;2022-11-12T03:58:44;102090.47;;;12.36;69.61
75172;BME280;63750;52.418;20.742;2022-11-12T04:01:13;102086.50;;;12.34;69.60
75172;BME280;63750;52.418;20.742;2022-11-12T04:03:41;102085.59;;;12.32;69.45
75172;BME280;63750;52.418;20.742;2022-11-12T04:06:09;102087.96;;;12.31;69.58
75172;BME280;63750;52.418;20.742;2022-11-12T04:08:38;102086.52;;;12.31;69.66
75172;BME280;63750;52.418;20.742;2022-11-12T04:11:08;102087.80;;;12.33;69.65
75172;BME280;63750;52.418;20.742;2022-11-12T04:13:38;102082.95;;;12.34;69.63
75172;BME280;63750;52.418;20.742;2022-11-12T04:16:08;102079.92;;;12.34;69.50
75172;BME280;63750;52.418;20.742;2022-11-12T04:18:37;102082.55;;;12.34;69.35
75172;BME280;63750;52.418;20.742;2022-11-12T04:21:08;102083.34;;;12.31;69.26
75172;BME280;63750;52.418;20.742;2022-11-12T04:23:41;102083.25;;;12.27;69.38
75172;BME280;63750;52.418;20.742;2022-11-12T04:26:09;102078.71;;;12.21;69.33
75172;BME280;63750;52.418;20.742;2022-11-12T04:28:38;102081.46;;;12.17;69.41
75172;BME280;63750;52.418;20.742;2022-11-12T04:31:06;102086.31;;;12.14;69.43
75172;BME280;63750;52.418;20.742;2022-11-12T04:33:35;102081.95;;;12.10;69.36
75172;BME280;63750;52.418;20.742;2022-11-12T04:36:03;102083.63;;;12.07;69.31
75172;BME280;63750;52.418;20.742;2022-11-12T04:38:32;102080.28;;;12.01;69.37
75172;BME280;63750;52.418;20.742;2022-11-12T04:41:01;102081.62;;;11.97;69.48
75172;BME280;63750;52.418;20.742;2022-11-12T04:43:29;102082.11;;;11.95;69.64
75172;BME280;63750;52.418;20.742;2022-11-12T04:45:59;102079.27;;;11.92;69.75
75172;BME280;63750;52.418;20.742;2022-11-12T04:48:28;102079.59;;;11.90;69.62
75172;BME280;63750;52.418;20.742;2022-11-12T04:51:00;102079.46;;;11.89;69.73
75172;BME280;63750;52.418;20.742;2022-11-12T04:53:29;102077.15;;;11.85;69.73
75172;BME280;63750;52.418;20.742;2022-11-12T04:55:59;102077.11;;;11.85;69.80
75172;BME280;63750;52.418;20.742;2022-11-12T04:58:27;102075.63;;;11.83;69.83
75172;BME280;63750;52.418;20.742;2022-11-12T05:00:55;102075.74;;;11.84;69.74
75172;BME280;63750;52.418;20.742;2022-11-12T05:03:24;102076.09;;;11.82;69.65
75172;BME280;63750;52.418;20.742;2022-11-12T05:05:52;102081.20;;;11.80;69.66
75172;BME280;63750;52.418;20.742;2022-11-12T05:08:27;102081.56;;;11.79;69.90
75172;BME280;63750;52.418;20.742;2022-11-12T05:10:56;102079.36;;;11.83;69.99
75172;BME280;63750;52.418;20.742;2022-11-12T05:13:24;102079.07;;;11.85;69.91
75172;BME280;63750;52.418;20.742;2022-11-12T05:15:52;102079.97;;;11.85;69.69
75172;BME280;63750;52.418;20.742;2022-11-12T05:18:21;102085.73;;;11.81;69.60
75172;BME280;63750;52.418;20.742;2022-11-12T05:20:49;102086.75;;;11.76;69.47
75172;BME280;63750;52.418;20.742;2022-11-12T05:23:19;102087.02;;;11.72;69.50
75172;BME280;63750;52.418;20.742;2022-11-12T05:25:48;102086.30;;;11.70;69.56
75172;BME280;63750;52.418;20.742;2022-11-12T05:28:17;102087.89;;;11.67;69.53
75172;BME280;63750;52.418;20.742;2022-11-12T05:30:48;102091.10;;;11.64;69.51
75172;BME280;63750;52.418;20.742;2022-11-12T05:33:16;102094.23;;;11.62;69.70
75172;BME280;63750;52.418;20.742;2022-11-12T05:35:45;102094.52;;;11.60;69.66
75172;BME280;63750;52.418;20.742;2022-11-12T05:38:13;102095.89;;;11.61;69.78
75172;BME280;63750;52.418;20.742;2022-11-12T05:40:45;102095.94;;;11.60;69.68
75172;BME280;63750;52.418;20.742;2022-11-12T05:43:14;102096.00;;;11.57;69.64
75172;BME280;63750;52.418;20.742;2022-11-12T05:45:43;102099.81;;;11.58;69.71
75172;BME280;63750;52.418;20.742;2022-11-12T05:48:12;102105.11;;;11.58;69.84
75172;BME280;63750;52.418;20.742;2022-11-12T05:50:41;102100.72;;;11.58;69.69
75172;BME280;63750;52.418;20.742;2022-11-12T05:53:09;102103.08;;;11.57;69.71
75172;BME280;63750;52.418;20.742;2022-11-12T05:55:38;102102.92;;;11.57;69.70
75172;BME280;63750;52.418;20.742;2022-11-12T05:58:07;102108.33;;;11.58;69.79
75172;BME280;63750;52.418;20.742;2022-11-12T06:00:35;102113.18;;;11.60;69.67
75172;BME280;63750;52.418;20.742;2022-11-12T06:03:04;102115.81;;;11.60;69.69
75172;BME280;63750;52.418;20.742;2022-11-12T06:05:34;102115.98;;;11.60;69.62
75172;BME280;63750;52.418;20.742;2022-11-12T06:08:03;102118.42;;;11.58;69.63
75172;BME280;63750;52.418;20.742;2022-11-12T06:10:32;102118.85;;;11.58;69.67
75172;BME280;63750;52.418;20.742;2022-11-12T06:13:01;102121.39;;;11.59;69.67
75172;BME280;63750;52.418;20.742;2022-11-12T06:15:29;102122.56;;;11.58;69.70
75172;BME280;63750;52.418;20.742;2022-11-12T06:17:58;102118.02;;;11.54;69.74
75172;BME280;63750;52.418;20.742;2022-11-12T06:20:27;102119.66;;;11.51;69.73
75172;BME280;63750;52.418;20.742;2022-11-12T06:22:57;102116.26;;;11.48;69.93
75172;BME280;63750;52.418;20.742;2022-11-12T06:25:26;102114.39;;;11.44;69.67
75172;BME280;63750;52.418;20.742;2022-11-12T06:27:54;102114.28;;;11.41;69.72
75172;BME280;63750;52.418;20.742;2022-11-12T06:30:23;102118.56;;;11.41;69.63
75172;BME280;63750;52.418;20.742;2022-11-12T06:32:51;102121.92;;;11.38;69.84
75172;BME280;63750;52.418;20.742;2022-11-12T06:35:23;102125.38;;;11.37;69.95
75172;BME280;63750;52.418;20.742;2022-11-12T06:37:52;102130.77;;;11.39;69.92
75172;BME280;63750;52.418;20.742;2022-11-12T06:40:20;102132.58;;;11.41;69.96
75172;BME280;63750;52.418;20.742;2022-11-12T06:42:56;102133.83;;;11.43;69.98
75172;BME280;63750;52.418;20.742;2022-11-12T06:45:25;102138.28;;;11.46;69.96
75172;BME280;63750;52.418;20.742;2022-11-12T06:47:57;102143.04;;;11.49;70.11
75172;BME280;63750;52.418;20.742;2022-11-12T06:50:26;102143.60;;;11.51;69.85
75172;BME280;63750;52.418;20.742;2022-11-12T06:52:58;102142.73;;;11.54;69.82
75172;BME280;63750;52.418;20.742;2022-11-12T06:55:27;102141.45;;;11.51;69.71
75172;BME280;63750;52.418;20.742;2022-11-12T06:57:55;102147.02;;;11.51;69.65
75172;BME280;63750;52.418;20.742;2022-11-12T07:00:25;102154.52;;;11.47;69.45
75172;BME280;63750;52.418;20.742;2022-11-12T07:02:53;102158.79;;;11.44;69.56
75172;BME280;63750;52.418;20.742;2022-11-12T07:05:25;102160.06;;;11.44;69.46
75172;BME280;63750;52.418;20.742;2022-11-12T07:07:57;102160.01;;;11.42;69.65
75172;BME280;63750;52.418;20.742;2022-11-12T07:10:25;102164.10;;;11.42;69.57
75172;BME280;63750;52.418;20.742;2022-11-12T07:12:55;102162.27;;;11.40;69.70
75172;BME280;63750;52.418;20.742;2022-11-12T07:15:23;102158.14;;;11.38;69.61
75172;BME280;63750;52.418;20.742;2022-11-12T07:17:52;102158.53;;;11.37;69.57
75172;BME280;63750;52.418;20.742;2022-11-12T07:20:20;102157.89;;;11.34;69.62
75172;BME280;63750;52.418;20.742;2022-11-12T07:22:49;102164.81;;;11.34;69.59
75172;BME280;63750;52.418;20.742;2022-11-12T07:25:18;102170.14;;;11.33;69.66
75172;BME280;63750;52.418;20.742;2022-11-12T07:27:46;102175.15;;;11.33;69.76
75172;BME280;63750;52.418;20.742;2022-11-12T07:30:15;102171.37;;;11.34;69.87
75172;BME280;63750;52.418;20.742;2022-11-12T07:32:43;102174.73;;;11.34;70.35
75172;BME280;63750;52.418;20.742;2022-11-12T07:35:12;102170.13;;;11.42;70.63
75172;BME280;63750;52.418;20.742;2022-11-12T07:37:40;102172.10;;;11.52;70.24
75172;BME280;63750;52.418;20.742;2022-11-12T07:40:11;102167.91;;;11.59;69.98
75172;BME280;63750;52.418;20.742;2022-11-12T07:42:39;102169.05;;;11.63;69.65
75172;BME280;63750;52.418;20.742;2022-11-12T07:45:09;102169.71;;;11.64;69.52
75172;BME280;63750;52.418;20.742;2022-11-12T07:47:38;102165.61;;;11.62;69.42
75172;BME280;63750;52.418;20.742;2022-11-12T07:50:08;102164.48;;;11.60;69.49
75172;BME280;63750;52.418;20.742;2022-11-12T07:52:36;102166.90;;;11.61;69.45
75172;BME280;63750;52.418;20.742;2022-11-12T07:55:06;102165.02;;;11.63;69.52
75172;BME280;63750;52.418;20.742;2022-11-12T07:57:35;102160.30;;;11.59;69.34
75172;BME280;63750;52.418;20.742;2022-11-12T08:00:06;102160.06;;;11.55;69.35
75172;BME280;63750;52.418;20.742;2022-11-12T08:02:35;102159.14;;;11.52;69.36
75172;BME280;63750;52.418;20.742;2022-11-12T08:05:05;102160.88;;;11.50;69.40
75172;BME280;63750;52.418;20.742;2022-11-12T08:07:33;102161.03;;;11.48;69.38
75172;BME280;63750;52.418;20.742;2022-11-12T08:10:02;102163.06;;;11.50;69.41
75172;BME280;63750;52.418;20.742;2022-11-12T08:12:31;102167.95;;;11.51;69.51
75172;BME280;63750;52.418;20.742;2022-11-12T08:14:59;102169.98;;;11.50;69.55
75172;BME280;63750;52.418;20.742;2022-11-12T08:17:28;102183.36;;;11.46;69.36
75172;BME280;63750;52.418;20.742;2022-11-12T08:19:56;102180.14;;;11.43;69.28
75172;BME280;63750;52.418;20.742;2022-11-12T08:22:25;102178.38;;;11.41;69.40
75172;BME280;63750;52.418;20.742;2022-11-12T08:24:54;102180.65;;;11.36;69.44
75172;BME280;63750;52.418;20.742;2022-11-12T08:27:22;102182.11;;;11.35;69.47
75172;BME280;63750;52.418;20.742;2022-11-12T08:29:50;102189.56;;;11.35;69.68
75172;BME280;63750;52.418;20.742;2022-11-12T08:32:19;102186.73;;;11.35;69.68
75172;BME280;63750;52.418;20.742;2022-11-12T08:34:48;102191.24;;;11.37;69.70
75172;BME280;63750;52.418;20.742;2022-11-12T08:37:16;102192.34;;;11.39;69.58
75172;BME280;63750;52.418;20.742;2022-11-12T08:39:45;102200.42;;;11.40;69.76
75172;BME280;63750;52.418;20.742;2022-11-12T08:42:13;102203.66;;;11.42;69.87
75172;BME280;63750;52.418;20.742;2022-11-12T08:44:44;102200.77;;;11.46;69.83
75172;BME280;63750;52.418;20.742;2022-11-12T08:47:13;102201.00;;;11.50;69.93
75172;BME280;63750;52.418;20.742;2022-11-12T08:49:41;102192.45;;;11.54;69.79
75172;BME280;63750;52.418;20.742;2022-11-12T08:52:10;102190.99;;;11.57;69.84
75172;BME280;63750;52.418;20.742;2022-11-12T08:54:38;102194.80;;;11.56;69.66
75172;BME280;63750;52.418;20.742;2022-11-12T08:57:07;102195.23;;;11.57;69.55
75172;BME280;63750;52.418;20.742;2022-11-12T08:59:35;102192.77;;;11.62;69.48
75172;BME280;63750;52.418;20.742;2022-11-12T09:02:04;102196.59;;;11.63;69.36
75172;BME280;63750;52.418;20.742;2022-11-12T09:04:32;102199.58;;;11.64;69.41
75172;BME280;63750;52.418;20.742;2022-11-12T09:07:01;102204.85;;;11.65;69.29
75172;BME280;63750;52.418;20.742;2022-11-12T09:09:30;102209.59;;;11.66;69.37
75172;BME280;63750;52.418;20.742;2022-11-12T09:11:58;102208.93;;;11.68;69.49
75172;BME280;63750;52.418;20.742;2022-11-12T09:14:27;102209.52;;;11.72;69.56
75172;BME280;63750;52.418;20.742;2022-11-12T09:16:56;102205.88;;;11.77;69.54
75172;BME280;63750;52.418;20.742;2022-11-12T09:19:25;102202.16;;;11.79;69.46
75172;BME280;63750;52.418;20.742;2022-11-12T09:21:53;102203.54;;;11.83;69.23
75172;BME280;63750;52.418;20.742;2022-11-12T09:24:22;102204.33;;;11.84;69.04
75172;BME280;63750;52.418;20.742;2022-11-12T09:26:52;102207.54;;;11.87;68.88
75172;BME280;63750;52.418;20.742;2022-11-12T09:29:21;102203.67;;;11.88;68.91
75172;BME280;63750;52.418;20.742;2022-11-12T09:31:49;102201.33;;;11.89;68.82
75172;BME280;63750;52.418;20.742;2022-11-12T09:34:18;102203.50;;;11.91;68.95
75172;BME280;63750;52.418;20.742;2022-11-12T09:36:47;102203.65;;;11.94;68.83
75172;BME280;63750;52.418;20.742;2022-11-12T09:39:15;102204.61;;;11.96;68.91
75172;BME280;63750;52.418;20.742;2022-11-12T09:41:44;102213.30;;;11.96;68.64
75172;BME280;63750;52.418;20.742;2022-11-12T09:44:14;102210.96;;;11.99;68.56
75172;BME280;63750;52.418;20.742;2022-11-12T09:46:46;102211.02;;;12.01;68.69
75172;BME280;63750;52.418;20.742;2022-11-12T09:49:20;102208.79;;;12.05;68.50
75172;BME280;63750;52.418;20.742;2022-11-12T09:51:52;102208.49;;;12.07;68.14
75172;BME280;63750;52.418;20.742;2022-11-12T09:54:24;102207.63;;;12.07;68.15
75172;BME280;63750;52.418;20.742;2022-11-12T09:56:54;102209.36;;;12.07;67.99
75172;BME280;63750;52.418;20.742;2022-11-12T09:59:25;102214.01;;;12.09;67.84
75172;BME280;63750;52.418;20.742;2022-11-12T10:02:03;102212.65;;;12.11;67.96
75172;BME280;63750;52.418;20.742;2022-11-12T10:04:46;102215.66;;;12.11;67.77
75172;BME280;63750;52.418;20.742;2022-11-12T10:07:24;102216.64;;;12.10;67.49
75172;BME280;63750;52.418;20.742;2022-11-12T10:10:02;102218.56;;;12.08;67.49
75172;BME280;63750;52.418;20.742;2022-11-12T10:12:45;102226.13;;;12.06;67.54
75172;BME280;63750;52.418;20.742;2022-11-12T10:15:37;102229.89;;;12.06;67.45
75172;BME280;63750;52.418;20.742;2022-11-12T10:18:11;102230.15;;;12.04;67.26
75172;BME280;63750;52.418;20.742;2022-11-12T10:20:46;102231.27;;;12.06;67.47
75172;BME280;63750;52.418;20.742;2022-11-12T10:23:20;102234.98;;;12.09;67.44
75172;BME280;63750;52.418;20.742;2022-11-12T10:25:51;102235.31;;;12.10;67.31
75172;BME280;63750;52.418;20.742;2022-11-12T10:28:28;102230.16;;;12.10;67.34
75172;BME280;63750;52.418;20.742;2022-11-12T10:30:59;102230.88;;;12.12;67.33
75172;BME280;63750;52.418;20.742;2022-11-12T10:33:32;102230.02;;;12.12;67.13
75172;BME280;63750;52.418;20.742;2022-11-12T10:38:54;102237.73;;;12.11;67.11
75172;BME280;63750;52.418;20.742;2022-11-12T10:41:26;102236.03;;;12.12;67.05
75172;BME280;63750;52.418;20.742;2022-11-12T10:43:58;102236.76;;;12.15;66.96
75172;BME280;63750;52.418;20.742;2022-11-12T10:46:29;102236.25;;;12.17;66.86
75172;BME280;63750;52.418;20.742;2022-11-12T10:49:00;102238.90;;;12.17;66.84
75172;BME280;63750;52.418;20.742;2022-11-12T10:51:31;102237.13;;;12.20;66.75
75172;BME280;63750;52.418;20.742;2022-11-12T10:54:19;102233.95;;;12.22;66.90
75172;BME280;63750;52.418;20.742;2022-11-12T10:56:48;102234.79;;;12.25;67.06
75172;BME280;63750;52.418;20.742;2022-11-12T10:59:20;102237.02;;;12.29;67.15
75172;BME280;63750;52.418;20.742;2022-11-12T11:01:56;102230.36;;;12.35;66.76
75172;BME280;63750;52.418;20.742;2022-11-12T11:04:29;102229.44;;;12.39;66.34
75172;BME280;63750;52.418;20.742;2022-11-12T11:07:15;102223.94;;;12.39;66.15
75172;BME280;63750;52.418;20.742;2022-11-12T11:09:54;102215.77;;;12.39;66.36
75172;BME280;63750;52.418;20.742;2022-11-12T11:12:26;102213.52;;;12.43;66.35
75172;BME280;63750;52.418;20.742;2022-11-12T11:15:17;102215.00;;;12.45;66.20
75172;BME280;63750;52.418;20.742;2022-11-12T11:17:46;102222.38;;;12.44;66.08
75172;BME280;63750;52.418;20.742;2022-11-12T11:20:20;102221.41;;;12.45;66.13
75172;BME280;63750;52.418;20.742;2022-11-12T11:22:54;102220.03;;;12.47;66.17
75172;BME280;63750;52.418;20.742;2022-11-12T11:25:25;102218.73;;;12.47;66.05
75172;BME280;63750;52.418;20.742;2022-11-12T11:28:03;102219.10;;;12.47;66.13
75172;BME280;63750;52.418;20.742;2022-11-12T11:30:37;102220.79;;;12.46;66.14
75172;BME280;63750;52.418;20.742;2022-11-12T11:33:33;102228.07;;;12.49;66.28
75172;BME280;63750;52.418;20.742;2022-11-12T11:36:17;102225.45;;;12.51;66.10
75172;BME280;63750;52.418;20.742;2022-11-12T11:38:57;102226.30;;;12.54;66.34
75172;BME280;63750;52.418;20.742;2022-11-12T11:41:52;102224.81;;;12.57;66.25
75172;BME280;63750;52.418;20.742;2022-11-12T11:44:33;102226.40;;;12.62;66.31
75172;BME280;63750;52.418;20.742;2022-11-12T11:47:14;102223.48;;;12.66;66.25
75172;BME280;63750;52.418;20.742;2022-11-12T11:50:02;102223.38;;;12.70;66.17
75172;BME280;63750;52.418;20.742;2022-11-12T11:52:57;102219.60;;;12.74;66.23
75172;BME280;63750;52.418;20.742;2022-11-12T11:55:43;102218.39;;;12.75;66.23
75172;BME280;63750;52.418;20.742;2022-11-12T12:01:08;102208.75;;;12.94;66.26
75172;BME280;63750;52.418;20.742;2022-11-12T12:03:53;102215.90;;;12.98;65.91
75172;BME280;63750;52.418;20.742;2022-11-12T12:06:29;102214.30;;;12.98;65.70
75172;BME280;63750;52.418;20.742;2022-11-12T12:09:15;102211.05;;;12.96;65.33
75172;BME280;63750;52.418;20.742;2022-11-12T12:11:53;102219.09;;;12.96;65.80
75172;BME280;63750;52.418;20.742;2022-11-12T12:14:33;102210.39;;;12.96;65.67
75172;BME280;63750;52.418;20.742;2022-11-12T12:17:14;102211.96;;;12.96;65.75
75172;BME280;63750;52.418;20.742;2022-11-12T12:19:54;102213.20;;;12.96;65.75
75172;BME280;63750;52.418;20.742;2022-11-12T12:22:33;102215.06;;;12.95;65.91
75172;BME280;63750;52.418;20.742;2022-11-12T12:25:09;102218.56;;;12.95;65.86
75172;BME280;63750;52.418;20.742;2022-11-12T12:27:46;102214.78;;;12.96;66.00
75172;BME280;63750;52.418;20.742;2022-11-12T12:30:21;102213.02;;;12.96;65.68
75172;BME280;63750;52.418;20.742;2022-11-12T12:32:54;102215.86;;;12.96;65.82
75172;BME280;63750;52.418;20.742;2022-11-12T12:35:28;102213.38;;;12.96;65.73
75172;BME280;63750;52.418;20.742;2022-11-12T12:38:04;102218.34;;;12.96;65.71
75172;BME280;63750;52.418;20.742;2022-11-12T12:40:40;102222.69;;;12.98;65.92
75172;BME280;63750;52.418;20.742;2022-11-12T12:43:16;102213.73;;;12.99;65.98
75172;BME280;63750;52.418;20.742;2022-11-12T12:45:47;102210.95;;;12.95;65.82
75172;BME280;63750;52.418;20.742;2022-11-12T12:48:18;102212.45;;;12.94;65.88
75172;BME280;63750;52.418;20.742;2022-11-12T12:50:48;102207.20;;;12.93;65.75
75172;BME280;63750;52.418;20.742;2022-11-12T12:53:31;102209.95;;;12.90;65.72
75172;BME280;63750;52.418;20.742;2022-11-12T12:56:01;102212.21;;;12.85;65.71
75172;BME280;63750;52.418;20.742;2022-11-12T12:58:40;102209.14;;;12.83;65.89
75172;BME280;63750;52.418;20.742;2022-11-12T13:01:24;102212.16;;;12.83;65.99
75172;BME280;63750;52.418;20.742;2022-11-12T13:03:56;102213.29;;;12.77;65.90
75172;BME280;63750;52.418;20.742;2022-11-12T13:06:28;102219.88;;;12.75;66.00
75172;BME280;63750;52.418;20.742;2022-11-12T13:09:02;102218.34;;;12.74;66.21